Time;durP1;ratioP1;P1;durP2;ratioP2;P2;SDS_P1;SDS_P2;PMS_P1;PMS_P2;Temp;Humidity;BMP_temperature;BMP_pressure;BME280_temperature;BME280_humidity;BME280_pressure;Samples;Min_cycle;Max_cycle;Signal;HPM_P1;HPM_P2
2022/08/20 00:00:00;;;;;;;;;;;27.00;53.80;;;;;;5108339;28;19955;-63
2022/08/20 00:02:25;;;;;;;;;;;26.90;53.70;;;;;;5112480;28;20294;-63
2022/08/20 00:04:51;;;;;;;;;;;26.90;53.70;;;;;;5113605;28;19955;-63
2022/08/20 00:07:16;;;;;;;;;;;26.90;53.40;;;;;;5114504;28;19907;-63
2022/08/20 00:09:42;;;;;;;;;;;26.90;53.30;;;;;;5110042;28;19923;-63
2022/08/20 00:12:07;;;;;;;;;;;26.90;52.90;;;;;;5096028;28;19916;-63
2022/08/20 00:14:33;;;;;;;;;;;27.00;52.90;;;;;;5114082;28;20450;-63
2022/08/20 00:16:59;;;;;;;;;;;26.90;52.60;;;;;;5089022;28;19976;-63
2022/08/20 00:19:24;;;;;;;;;;;26.90;52.90;;;;;;5111015;28;19916;-62
2022/08/20 00:21:50;;;;;;;;;;;26.80;52.90;;;;;;5095295;28;20010;-63
2022/08/20 00:24:15;;;;;;;;;;;26.80;53.00;;;;;;5113407;28;19923;-63
2022/08/20 00:26:41;;;;;;;;;;;26.80;52.90;;;;;;5109827;28;19935;-62
2022/08/20 00:29:06;;;;;;;;;;;26.80;52.80;;;;;;5111221;28;19916;-63
2022/08/20 00:31:32;;;;;;;;;;;26.80;52.90;;;;;;5108734;28;19920;-63
2022/08/20 00:33:57;;;;;;;;;;;26.80;52.70;;;;;;5105916;28;19912;-62
2022/08/20 00:36:23;;;;;;;;;;;26.80;52.90;;;;;;5097401;28;20341;-62
2022/08/20 00:38:48;;;;;;;;;;;26.80;52.70;;;;;;5112552;28;19998;-63
2022/08/20 00:41:15;;;;;;;;;;;26.80;52.80;;;;;;5112960;28;19919;-63
2022/08/20 00:43:42;;;;;;;;;;;26.80;52.50;;;;;;5109591;28;20348;-62
2022/08/20 00:46:11;;;;;;;;;;;26.80;52.70;;;;;;5111797;28;19916;-63
2022/08/20 00:48:38;;;;;;;;;;;26.80;52.80;;;;;;5103375;28;19916;-63
2022/08/20 00:51:05;;;;;;;;;;;26.80;52.70;;;;;;5112834;28;19915;-63
2022/08/20 00:53:32;;;;;;;;;;;26.70;52.60;;;;;;5094700;28;19996;-62
2022/08/20 00:55:57;;;;;;;;;;;26.80;52.40;;;;;;5094750;28;19908;-63
2022/08/20 00:58:23;;;;;;;;;;;26.80;52.40;;;;;;5073620;28;19982;-62
2022/08/20 01:00:48;;;;;;;;;;;26.80;52.50;;;;;;5108104;28;19912;-62
2022/08/20 01:03:14;;;;;;;;;;;26.90;52.30;;;;;;5109774;28;19924;-63
2022/08/20 01:05:41;;;;;;;;;;;26.80;52.30;;;;;;5101472;28;19911;-63
2022/08/20 01:08:06;;;;;;;;;;;26.80;52.40;;;;;;5110819;28;19920;-62
2022/08/20 01:10:33;;;;;;;;;;;26.80;52.20;;;;;;5093767;28;19912;-63
2022/08/20 01:12:59;;;;;;;;;;;26.90;52.10;;;;;;5093736;28;20640;-63
2022/08/20 01:15:25;;;;;;;;;;;27.00;51.90;;;;;;5113209;28;19915;-63
2022/08/20 01:17:51;;;;;;;;;;;27.00;52.00;;;;;;5092114;28;19912;-63
2022/08/20 01:20:21;;;;;;;;;;;27.00;52.00;;;;;;5088720;28;19919;-63
2022/08/20 01:25:59;;;;;;;;;;;27.00;51.70;;;;;;5118595;28;19937;-63
2022/08/20 01:28:27;;;;;;;;;;;27.00;51.60;;;;;;5113110;28;19915;-63
2022/08/20 01:30:52;;;;;;;;;;;27.00;51.70;;;;;;5090415;28;20326;-63
2022/08/20 01:33:18;;;;;;;;;;;27.00;51.90;;;;;;5094694;28;19908;-63
2022/08/20 01:35:43;;;;;;;;;;;27.00;51.90;;;;;;5104756;28;19922;-63
2022/08/20 01:38:09;;;;;;;;;;;27.00;51.90;;;;;;5111137;28;19962;-63
2022/08/20 01:40:54;;;;;;;;;;;27.00;51.90;;;;;;5089391;28;20292;-63
2022/08/20 01:43:19;;;;;;;;;;;27.00;51.80;;;;;;5080103;28;20356;-63
2022/08/20 01:45:45;;;;;;;;;;;27.00;52.10;;;;;;5093787;28;19968;-63
2022/08/20 01:48:10;;;;;;;;;;;27.10;51.90;;;;;;5091682;28;19911;-62
2022/08/20 01:50:35;;;;;;;;;;;27.10;51.80;;;;;;5074343;28;19918;-63
2022/08/20 01:53:13;;;;;;;;;;;27.10;51.90;;;;;;5089518;28;19912;-62
2022/08/20 01:55:39;;;;;;;;;;;27.10;51.90;;;;;;5093292;28;19982;-63
2022/08/20 01:58:04;;;;;;;;;;;27.00;51.90;;;;;;5111983;28;19958;-63
2022/08/20 02:00:31;;;;;;;;;;;27.10;51.80;;;;;;5108948;28;20002;-63
2022/08/20 02:02:56;;;;;;;;;;;27.10;51.80;;;;;;5112368;28;19915;-63
2022/08/20 02:05:22;;;;;;;;;;;27.10;51.90;;;;;;5111728;28;19911;-63
2022/08/20 02:07:48;;;;;;;;;;;27.10;51.80;;;;;;5091274;28;19967;-63
2022/08/20 02:10:13;;;;;;;;;;;27.10;51.60;;;;;;5109002;28;19912;-63
2022/08/20 02:12:39;;;;;;;;;;;27.20;51.80;;;;;;5110841;28;20368;-62
2022/08/20 02:15:05;;;;;;;;;;;27.10;51.80;;;;;;5091459;28;19916;-63
2022/08/20 02:17:30;;;;;;;;;;;27.20;51.90;;;;;;5084543;28;19969;-63
2022/08/20 02:20:00;;;;;;;;;;;27.10;51.90;;;;;;5065864;28;19919;-63
2022/08/20 02:22:36;;;;;;;;;;;27.10;52.10;;;;;;5090519;28;19912;-63
2022/08/20 02:25:03;;;;;;;;;;;27.00;52.10;;;;;;5067629;28;19916;-62
2022/08/20 02:27:29;;;;;;;;;;;27.00;52.10;;;;;;5073186;28;19908;-63
2022/08/20 02:29:54;;;;;;;;;;;27.00;52.30;;;;;;5089285;28;20341;-62
2022/08/20 02:32:20;;;;;;;;;;;27.00;52.30;;;;;;5090399;28;20008;-63
2022/08/20 02:34:45;;;;;;;;;;;27.00;52.50;;;;;;5089572;28;20370;-63
2022/08/20 02:37:15;;;;;;;;;;;27.00;53.10;;;;;;5091237;28;19908;-63
2022/08/20 02:39:40;;;;;;;;;;;26.90;52.50;;;;;;5086006;28;19916;-63
2022/08/20 02:42:06;;;;;;;;;;;27.00;52.50;;;;;;5080224;28;20387;-62
2022/08/20 02:44:31;;;;;;;;;;;27.00;52.30;;;;;;5071357;28;20005;-63
2022/08/20 02:46:57;;;;;;;;;;;27.00;52.30;;;;;;5091541;28;19909;-63
2022/08/20 02:49:22;;;;;;;;;;;27.00;52.20;;;;;;5089283;28;19912;-63
2022/08/20 02:51:48;;;;;;;;;;;27.10;52.20;;;;;;5091801;28;19922;-62
2022/08/20 02:54:13;;;;;;;;;;;27.10;52.20;;;;;;5088905;28;19911;-63
2022/08/20 02:56:39;;;;;;;;;;;27.00;52.50;;;;;;5086647;28;19920;-63
2022/08/20 02:59:05;;;;;;;;;;;27.00;52.50;;;;;;5090512;28;19926;-63
2022/08/20 03:01:30;;;;;;;;;;;27.00;52.60;;;;;;5088574;28;19915;-63
2022/08/20 03:03:57;;;;;;;;;;;26.90;52.80;;;;;;5091321;28;19959;-62
2022/08/20 03:06:23;;;;;;;;;;;26.90;52.80;;;;;;5090961;28;20320;-62
2022/08/20 03:08:49;;;;;;;;;;;26.90;53.10;;;;;;5080128;28;19955;-63
2022/08/20 03:11:14;;;;;;;;;;;26.90;53.10;;;;;;5089271;28;19935;-63
2022/08/20 03:13:40;;;;;;;;;;;26.90;53.20;;;;;;5065438;28;19927;-63
2022/08/20 03:16:06;;;;;;;;;;;26.90;53.30;;;;;;5090352;28;19916;-63
2022/08/20 03:18:33;;;;;;;;;;;26.90;53.30;;;;;;5090663;28;19955;-62
2022/08/20 03:20:58;;;;;;;;;;;27.00;53.30;;;;;;5088545;28;19916;-62
2022/08/20 03:23:24;;;;;;;;;;;26.90;53.20;;;;;;5089186;28;20443;-63
2022/08/20 03:25:49;;;;;;;;;;;27.00;53.20;;;;;;5094683;28;20005;-63
2022/08/20 03:28:15;;;;;;;;;;;27.00;53.20;;;;;;5083406;28;20394;-63
2022/08/20 03:30:40;;;;;;;;;;;27.00;53.20;;;;;;5094105;28;19912;-63
2022/08/20 03:33:07;;;;;;;;;;;27.00;53.30;;;;;;5093702;28;20432;-63
2022/08/20 03:35:33;;;;;;;;;;;27.00;53.30;;;;;;5080271;28;20337;-63
2022/08/20 03:37:58;;;;;;;;;;;27.00;53.50;;;;;;5092321;28;19919;-63
2022/08/20 03:40:28;;;;;;;;;;;27.00;53.70;;;;;;5091984;28;19916;-63
2022/08/20 03:42:53;;;;;;;;;;;27.00;53.80;;;;;;5084920;28;19927;-63
2022/08/20 03:45:19;;;;;;;;;;;26.90;54.10;;;;;;5089535;28;19994;-63
2022/08/20 03:47:44;;;;;;;;;;;27.00;54.20;;;;;;5088179;28;19920;-63
2022/08/20 03:50:10;;;;;;;;;;;27.00;54.20;;;;;;5091507;28;20006;-63
2022/08/20 03:52:36;;;;;;;;;;;27.00;54.40;;;;;;5093870;28;19958;-62
2022/08/20 03:55:01;;;;;;;;;;;27.00;55.20;;;;;;5092001;28;19912;-63
2022/08/20 03:57:27;;;;;;;;;;;27.00;54.50;;;;;;5092949;28;20003;-63
2022/08/20 03:59:53;;;;;;;;;;;27.00;54.60;;;;;;5086670;28;19912;-62
2022/08/20 04:02:18;;;;;;;;;;;27.00;54.60;;;;;;5092191;28;19966;-63
2022/08/20 04:04:43;;;;;;;;;;;27.00;54.90;;;;;;5093262;28;19920;-63
2022/08/20 04:07:12;;;;;;;;;;;27.00;54.80;;;;;;5093206;28;19939;-63
2022/08/20 04:09:38;;;;;;;;;;;27.00;55.00;;;;;;5079642;28;20402;-63
2022/08/20 04:12:04;;;;;;;;;;;26.90;55.10;;;;;;5092577;28;19998;-63
2022/08/20 04:14:30;;;;;;;;;;;26.90;55.30;;;;;;5108135;28;19923;-62
2022/08/20 04:16:57;;;;;;;;;;;27.00;55.20;;;;;;5090717;28;21281;-63
2022/08/20 04:19:23;;;;;;;;;;;26.90;55.40;;;;;;5110071;28;20367;-63
2022/08/20 04:21:48;;;;;;;;;;;27.00;55.50;;;;;;5112770;28;19915;-63
2022/08/20 04:24:14;;;;;;;;;;;26.90;55.50;;;;;;5112091;28;19916;-63
2022/08/20 04:26:40;;;;;;;;;;;26.90;55.60;;;;;;5108328;28;19916;-63
2022/08/20 04:29:05;;;;;;;;;;;26.90;55.70;;;;;;5113111;28;19953;-63
2022/08/20 04:31:34;;;;;;;;;;;26.90;55.60;;;;;;5090241;28;20306;-63
2022/08/20 04:34:00;;;;;;;;;;;26.90;55.70;;;;;;5108504;28;20048;-63
2022/08/20 04:36:26;;;;;;;;;;;27.00;55.80;;;;;;5093737;28;19964;-63
2022/08/20 04:38:51;;;;;;;;;;;26.90;55.80;;;;;;5113393;28;19911;-63
2022/08/20 04:41:17;;;;;;;;;;;26.90;55.80;;;;;;5111248;28;20359;-63
2022/08/20 04:43:43;;;;;;;;;;;27.00;55.90;;;;;;5092552;28;20392;-63
2022/08/20 04:46:08;;;;;;;;;;;27.00;56.00;;;;;;5092087;28;19967;-63
2022/08/20 04:48:37;;;;;;;;;;;26.90;56.10;;;;;;5105817;28;19916;-63
2022/08/20 04:51:03;;;;;;;;;;;26.90;56.10;;;;;;5104961;28;19965;-63
2022/08/20 04:53:29;;;;;;;;;;;26.90;56.20;;;;;;5111766;28;19912;-62
2022/08/20 04:55:55;;;;;;;;;;;26.90;56.30;;;;;;5111448;28;19920;-62
2022/08/20 04:58:22;;;;;;;;;;;26.90;56.40;;;;;;5113771;28;19908;-63
2022/08/20 05:00:48;;;;;;;;;;;26.90;56.40;;;;;;5092380;28;20367;-63
2022/08/20 05:03:14;;;;;;;;;;;26.90;56.50;;;;;;5110848;28;19912;-63
2022/08/20 05:05:40;;;;;;;;;;;26.90;56.60;;;;;;5099130;28;19918;-63
2022/08/20 05:08:05;;;;;;;;;;;26.90;56.80;;;;;;5101698;28;19916;-63
2022/08/20 05:10:30;;;;;;;;;;;26.90;56.80;;;;;;5111136;28;19911;-63
2022/08/20 05:12:56;;;;;;;;;;;26.80;57.00;;;;;;5111457;28;20026;-63
2022/08/20 05:15:23;;;;;;;;;;;26.80;57.20;;;;;;5112690;28;20285;-63
2022/08/20 05:17:52;;;;;;;;;;;26.80;57.20;;;;;;5102906;28;19991;-63
2022/08/20 05:20:18;;;;;;;;;;;26.80;57.30;;;;;;5108855;28;19926;-62
2022/08/20 05:22:43;;;;;;;;;;;26.80;57.10;;;;;;5112338;28;19911;-62
2022/08/20 05:25:09;;;;;;;;;;;26.70;57.70;;;;;;5111686;28;19951;-63
2022/08/20 05:27:34;;;;;;;;;;;26.70;57.70;;;;;;5092964;28;19948;-63
2022/08/20 05:30:00;;;;;;;;;;;26.70;57.80;;;;;;5112039;28;20375;-63
2022/08/20 05:32:26;;;;;;;;;;;26.60;58.00;;;;;;5109201;28;19970;-63
2022/08/20 05:34:51;;;;;;;;;;;26.60;58.00;;;;;;5111313;28;19912;-62
2022/08/20 05:37:17;;;;;;;;;;;26.70;58.10;;;;;;5105984;28;19980;-63
2022/08/20 05:39:43;;;;;;;;;;;26.70;58.00;;;;;;5110626;28;19918;-63
2022/08/20 05:42:08;;;;;;;;;;;26.70;58.00;;;;;;5108648;28;19932;-63
2022/08/20 05:44:36;;;;;;;;;;;26.80;58.00;;;;;;5112672;28;20432;-63
2022/08/20 05:47:03;;;;;;;;;;;26.70;58.00;;;;;;5109042;28;19922;-63
2022/08/20 05:49:28;;;;;;;;;;;26.70;58.20;;;;;;5112719;28;19908;-63
2022/08/20 05:51:54;;;;;;;;;;;26.60;58.30;;;;;;5106560;28;20296;-63
2022/08/20 05:54:20;;;;;;;;;;;26.70;58.30;;;;;;5110451;28;19939;-62
2022/08/20 05:56:46;;;;;;;;;;;26.70;58.40;;;;;;5110310;28;19912;-63
2022/08/20 05:59:12;;;;;;;;;;;26.70;58.40;;;;;;5111957;28;19930;-63
2022/08/20 06:01:38;;;;;;;;;;;26.70;58.50;;;;;;5109029;28;19919;-63
2022/08/20 06:06:48;;;;;;;;;;;26.60;58.60;;;;;;5106821;28;19927;-63
2022/08/20 06:09:14;;;;;;;;;;;26.60;58.50;;;;;;5101169;28;20283;-63
2022/08/20 06:11:39;;;;;;;;;;;26.60;58.70;;;;;;5094215;28;19918;-62
2022/08/20 06:14:05;;;;;;;;;;;26.60;58.70;;;;;;5091158;28;20290;-62
2022/08/20 06:16:30;;;;;;;;;;;26.60;58.70;;;;;;5104064;28;19973;-63
2022/08/20 06:18:56;;;;;;;;;;;26.70;58.60;;;;;;5108779;28;19912;-63
2022/08/20 06:21:21;;;;;;;;;;;26.60;58.60;;;;;;5112693;28;19949;-63
2022/08/20 06:23:47;;;;;;;;;;;26.60;58.70;;;;;;5108570;28;19919;-63
2022/08/20 06:26:13;;;;;;;;;;;26.60;58.80;;;;;;5091972;28;19957;-62
2022/08/20 06:28:38;;;;;;;;;;;26.50;58.80;;;;;;5090283;28;19916;-64
2022/08/20 06:31:04;;;;;;;;;;;26.50;58.80;;;;;;5112086;28;19915;-63
2022/08/20 06:33:29;;;;;;;;;;;26.50;58.80;;;;;;5111545;28;19955;-63
2022/08/20 06:35:55;;;;;;;;;;;26.50;58.70;;;;;;5110888;28;19962;-63
2022/08/20 06:38:20;;;;;;;;;;;26.50;58.80;;;;;;5091929;28;19923;-64
2022/08/20 06:40:46;;;;;;;;;;;26.50;58.70;;;;;;5103355;28;19920;-63
2022/08/20 06:43:12;;;;;;;;;;;26.50;58.80;;;;;;5106417;28;19916;-62
2022/08/20 06:45:37;;;;;;;;;;;26.50;58.80;;;;;;5109240;28;19912;-63
2022/08/20 06:48:10;;;;;;;;;;;26.50;58.70;;;;;;5090249;28;20372;-62
2022/08/20 06:50:38;;;;;;;;;;;26.50;58.80;;;;;;5110640;28;19959;-63
2022/08/20 06:53:13;;;;;;;;;;;26.50;58.80;;;;;;5093055;28;19912;-62
2022/08/20 06:55:39;;;;;;;;;;;26.50;58.90;;;;;;5109403;28;19956;-63
2022/08/20 06:58:06;;;;;;;;;;;26.50;58.80;;;;;;5108509;28;19931;-63
2022/08/20 07:00:32;;;;;;;;;;;26.60;58.80;;;;;;5112499;28;19916;-62
2022/08/20 07:02:59;;;;;;;;;;;26.60;58.70;;;;;;5112202;28;19980;-63
2022/08/20 07:05:25;;;;;;;;;;;26.60;58.70;;;;;;5104120;27;19969;-63
2022/08/20 07:07:51;;;;;;;;;;;26.60;58.90;;;;;;5107373;28;20360;-63
2022/08/20 07:10:17;;;;;;;;;;;26.60;59.00;;;;;;5106592;28;19919;-62
2022/08/20 07:12:42;;;;;;;;;;;26.60;59.00;;;;;;5109759;28;20384;-63
2022/08/20 07:15:08;;;;;;;;;;;26.60;59.00;;;;;;5086478;28;19916;-62
2022/08/20 07:17:34;;;;;;;;;;;26.60;59.00;;;;;;5094982;28;20287;-63
2022/08/20 07:20:07;;;;;;;;;;;26.60;59.00;;;;;;5089849;28;19912;-62
2022/08/20 07:22:35;;;;;;;;;;;26.60;58.90;;;;;;5060347;28;19947;-63
2022/08/20 07:25:04;;;;;;;;;;;26.60;59.10;;;;;;5093105;28;20481;-62
2022/08/20 07:27:29;;;;;;;;;;;26.60;59.10;;;;;;5076841;28;20061;-62
2022/08/20 07:32:39;;;;;;;;;;;26.60;59.30;;;;;;5088156;28;19974;-62
2022/08/20 07:35:09;;;;;;;;;;;26.50;59.60;;;;;;5088283;28;19957;-63
2022/08/20 07:37:38;;;;;;;;;;;26.40;59.80;;;;;;5093669;28;19916;-63
2022/08/20 07:40:04;;;;;;;;;;;26.40;59.90;;;;;;5088500;28;19908;-63
2022/08/20 07:42:30;;;;;;;;;;;26.40;59.80;;;;;;5087127;28;19916;-63
2022/08/20 07:44:55;;;;;;;;;;;26.40;59.80;;;;;;5082987;28;20004;-62
2022/08/20 07:47:21;;;;;;;;;;;26.50;59.60;;;;;;5073881;28;19915;-63
2022/08/20 07:49:47;;;;;;;;;;;26.50;59.40;;;;;;5082482;28;19908;-63
2022/08/20 07:52:12;;;;;;;;;;;26.50;59.40;;;;;;5088823;28;19947;-63
2022/08/20 07:54:38;;;;;;;;;;;26.50;59.50;;;;;;5093452;28;20376;-62
2022/08/20 07:57:03;;;;;;;;;;;26.40;59.40;;;;;;5091210;28;19948;-63
2022/08/20 07:59:29;;;;;;;;;;;26.50;59.30;;;;;;5093469;28;19916;-62
2022/08/20 08:01:54;;;;;;;;;;;26.40;59.20;;;;;;5076005;28;19937;-62
2022/08/20 08:04:20;;;;;;;;;;;26.40;59.10;;;;;;5091028;28;20327;-63
2022/08/20 08:06:45;;;;;;;;;;;26.40;59.10;;;;;;5089862;28;19922;-62
2022/08/20 08:09:11;;;;;;;;;;;26.40;59.00;;;;;;5092872;28;19919;-62
2022/08/20 08:11:38;;;;;;;;;;;26.40;59.00;;;;;;5074992;28;19994;-62
2022/08/20 08:14:05;;;;;;;;;;;26.40;58.80;;;;;;5104022;28;19928;-62
2022/08/20 08:16:31;;;;;;;;;;;26.50;58.50;;;;;;5096243;28;20294;-63
2022/08/20 08:18:57;;;;;;;;;;;26.50;58.40;;;;;;5111733;28;19915;-63
2022/08/20 08:21:23;;;;;;;;;;;26.60;58.30;;;;;;5096294;28;20339;-63
2022/08/20 08:23:49;;;;;;;;;;;26.60;58.20;;;;;;5108844;28;19916;-62
2022/08/20 08:26:14;;;;;;;;;;;26.50;58.10;;;;;;5095832;28;20279;-63
2022/08/20 08:28:40;;;;;;;;;;;26.50;58.20;;;;;;5092780;28;19916;-63
2022/08/20 08:31:06;;;;;;;;;;;26.50;58.20;;;;;;5098469;28;19912;-62
2022/08/20 08:33:32;;;;;;;;;;;26.50;58.00;;;;;;5113656;28;19919;-63
2022/08/20 08:36:02;;;;;;;;;;;26.50;58.00;;;;;;5112000;28;19912;-62
2022/08/20 08:38:28;;;;;;;;;;;26.50;57.90;;;;;;5107687;28;20005;-63
2022/08/20 08:40:55;;;;;;;;;;;26.50;57.80;;;;;;5110324;28;19972;-63
2022/08/20 08:43:24;;;;;;;;;;;26.50;57.90;;;;;;5112775;28;19994;-63
2022/08/20 08:46:10;;;;;;;;;;;26.50;57.80;;;;;;5111680;28;19916;-62
2022/08/20 08:48:43;;;;;;;;;;;26.50;57.70;;;;;;5107103;28;19920;-63
2022/08/20 08:51:11;;;;;;;;;;;26.50;57.80;;;;;;5092621;28;19908;-63
2022/08/20 08:53:41;;;;;;;;;;;26.60;57.70;;;;;;5093806;28;19972;-63
2022/08/20 08:56:06;;;;;;;;;;;26.60;57.60;;;;;;5087409;28;20286;-63
2022/08/20 08:58:34;;;;;;;;;;;26.50;57.50;;;;;;5093231;28;19911;-63
2022/08/20 09:01:03;;;;;;;;;;;26.50;57.50;;;;;;5113095;28;19911;-63
2022/08/20 09:03:30;;;;;;;;;;;26.50;57.10;;;;;;5095286;28;19912;-63
2022/08/20 09:05:57;;;;;;;;;;;26.50;57.10;;;;;;5111028;28;19927;-63
2022/08/20 09:08:23;;;;;;;;;;;26.50;56.90;;;;;;5103971;28;19923;-63
2022/08/20 09:10:49;;;;;;;;;;;26.50;56.60;;;;;;5089150;28;19920;-62
2022/08/20 09:13:14;;;;;;;;;;;26.60;56.20;;;;;;5106919;28;19926;-64
2022/08/20 09:15:40;;;;;;;;;;;26.70;56.10;;;;;;5074925;28;19912;-62
2022/08/20 09:18:05;;;;;;;;;;;26.60;56.00;;;;;;5112172;28;19961;-62
2022/08/20 09:20:31;;;;;;;;;;;26.60;56.00;;;;;;5109851;28;20340;-62
2022/08/20 09:22:56;;;;;;;;;;;26.50;55.90;;;;;;5111501;28;19919;-63
2022/08/20 09:25:22;;;;;;;;;;;26.50;56.10;;;;;;5109766;28;20363;-62
2022/08/20 09:27:47;;;;;;;;;;;26.50;55.80;;;;;;5093610;28;19973;-62
2022/08/20 09:30:13;;;;;;;;;;;26.50;55.70;;;;;;5109691;28;19939;-64
2022/08/20 09:32:38;;;;;;;;;;;26.50;55.60;;;;;;5109050;28;19938;-60
2022/08/20 09:35:04;;;;;;;;;;;26.70;55.50;;;;;;5089917;28;20348;-63
2022/08/20 09:37:29;;;;;;;;;;;26.70;55.90;;;;;;5086104;28;20479;-62
2022/08/20 09:39:55;;;;;;;;;;;26.60;55.70;;;;;;5090861;28;19996;-63
2022/08/20 09:42:22;;;;;;;;;;;26.70;55.80;;;;;;5089604;28;19919;-63
2022/08/20 09:44:48;;;;;;;;;;;26.70;55.60;;;;;;5110602;28;20356;-63
2022/08/20 09:47:14;;;;;;;;;;;26.70;55.40;;;;;;5109329;28;20002;-64
2022/08/20 09:49:40;;;;;;;;;;;26.70;55.20;;;;;;5087322;28;19926;-63
2022/08/20 09:52:06;;;;;;;;;;;26.70;55.00;;;;;;5107045;28;21652;-62
2022/08/20 09:54:32;;;;;;;;;;;26.70;54.70;;;;;;5108203;28;19916;-64
2022/08/20 09:56:59;;;;;;;;;;;26.80;54.80;;;;;;5086912;28;20007;-64
2022/08/20 09:59:24;;;;;;;;;;;26.80;54.50;;;;;;5086049;28;19916;-62
2022/08/20 10:01:50;;;;;;;;;;;26.80;54.50;;;;;;5109803;28;19919;-61
2022/08/20 10:04:15;;;;;;;;;;;26.90;54.50;;;;;;5111973;28;20024;-62
2022/08/20 10:06:41;;;;;;;;;;;26.80;54.30;;;;;;5109707;28;19912;-61
2022/08/20 10:09:06;;;;;;;;;;;26.80;54.30;;;;;;5106523;28;20381;-61
2022/08/20 10:11:32;;;;;;;;;;;26.70;54.30;;;;;;5106655;28;19961;-61
2022/08/20 10:13:57;;;;;;;;;;;26.80;54.20;;;;;;5106782;28;19924;-62
2022/08/20 10:16:22;;;;;;;;;;;26.80;54.00;;;;;;5110166;28;19918;-63
2022/08/20 10:18:48;;;;;;;;;;;26.80;54.00;;;;;;5093630;28;20290;-62
2022/08/20 10:21:13;;;;;;;;;;;26.80;53.80;;;;;;5103846;28;19957;-62
2022/08/20 10:23:39;;;;;;;;;;;26.90;53.70;;;;;;5091051;28;20010;-62
2022/08/20 10:26:06;;;;;;;;;;;26.90;53.60;;;;;;5092487;28;19916;-63
2022/08/20 10:28:32;;;;;;;;;;;26.90;54.20;;;;;;5110795;28;20264;-63
2022/08/20 10:30:57;;;;;;;;;;;27.00;53.50;;;;;;5105922;28;19983;-62
2022/08/20 10:33:23;;;;;;;;;;;26.90;53.40;;;;;;5110495;28;19915;-63
2022/08/20 10:35:48;;;;;;;;;;;26.90;53.50;;;;;;5112984;28;19918;-63
2022/08/20 10:38:14;;;;;;;;;;;26.90;53.30;;;;;;5106020;27;20018;-64
2022/08/20 10:40:40;;;;;;;;;;;26.90;53.30;;;;;;5112464;28;19916;-65
2022/08/20 10:43:05;;;;;;;;;;;26.90;53.30;;;;;;5111480;28;20334;-62
2022/08/20 10:45:30;;;;;;;;;;;27.00;53.10;;;;;;5085307;28;19919;-63
2022/08/20 10:47:59;;;;;;;;;;;26.90;53.00;;;;;;5107288;28;20010;-60
2022/08/20 10:50:24;;;;;;;;;;;26.90;53.00;;;;;;5094723;28;19923;-63
2022/08/20 10:52:50;;;;;;;;;;;26.90;53.00;;;;;;5115441;28;20311;-63
2022/08/20 10:55:15;;;;;;;;;;;26.90;53.30;;;;;;5108726;28;19916;-64
2022/08/20 10:57:41;;;;;;;;;;;26.90;53.10;;;;;;5097760;28;19908;-64
2022/08/20 11:00:08;;;;;;;;;;;26.90;53.10;;;;;;5111170;28;19919;-63
2022/08/20 11:02:34;;;;;;;;;;;27.00;53.10;;;;;;5113118;28;19919;-63
2022/08/20 11:04:59;;;;;;;;;;;27.00;52.90;;;;;;5110828;28;19920;-63
2022/08/20 11:07:27;;;;;;;;;;;26.90;52.70;;;;;;5113301;28;19916;-63
2022/08/20 11:09:53;;;;;;;;;;;27.00;52.50;;;;;;5096279;28;19908;-64
2022/08/20 11:12:19;;;;;;;;;;;26.90;52.30;;;;;;5095174;28;20399;-64
2022/08/20 11:14:44;;;;;;;;;;;27.00;53.30;;;;;;5095846;28;19936;-63
2022/08/20 11:17:10;;;;;;;;;;;26.90;53.40;;;;;;5070506;28;19924;-63
2022/08/20 11:19:41;;;;;;;;;;;26.90;53.20;;;;;;5087548;28;19916;-63
2022/08/20 11:22:07;;;;;;;;;;;26.90;53.00;;;;;;5075166;28;19914;-63
2022/08/20 11:24:32;;;;;;;;;;;26.90;52.90;;;;;;5076100;28;19916;-63
2022/08/20 11:26:58;;;;;;;;;;;26.80;53.00;;;;;;5090765;28;20011;-64
2022/08/20 11:29:23;;;;;;;;;;;26.80;52.90;;;;;;5090710;28;20021;-62
2022/08/20 11:31:49;;;;;;;;;;;26.80;53.00;;;;;;5086814;28;20431;-63
2022/08/20 11:34:15;;;;;;;;;;;26.80;52.90;;;;;;5087829;28;19913;-63
2022/08/20 11:36:40;;;;;;;;;;;26.90;52.70;;;;;;5089975;28;19966;-63
2022/08/20 11:39:06;;;;;;;;;;;26.90;52.70;;;;;;5074193;28;20040;-63
2022/08/20 11:41:31;;;;;;;;;;;26.90;53.30;;;;;;5093673;28;19916;-63
2022/08/20 11:43:57;;;;;;;;;;;26.90;52.70;;;;;;5085483;28;20398;-63
2022/08/20 11:46:22;;;;;;;;;;;26.90;52.40;;;;;;5084719;28;20599;-63
2022/08/20 11:48:48;;;;;;;;;;;26.90;52.50;;;;;;5075109;28;19954;-63
2022/08/20 11:51:13;;;;;;;;;;;26.90;52.50;;;;;;5088026;28;19973;-63
2022/08/20 11:53:39;;;;;;;;;;;26.90;52.50;;;;;;5089566;28;19923;-63
2022/08/20 11:56:04;;;;;;;;;;;26.90;52.40;;;;;;5057069;28;19911;-63
2022/08/20 11:58:30;;;;;;;;;;;26.90;52.30;;;;;;5094039;28;19955;-63
2022/08/20 12:00:55;;;;;;;;;;;27.00;52.20;;;;;;5091236;28;19912;-62
2022/08/20 12:03:20;;;;;;;;;;;26.90;52.10;;;;;;5087328;28;19958;-62
2022/08/20 12:05:46;;;;;;;;;;;26.90;52.10;;;;;;5074499;28;19915;-62
2022/08/20 12:08:12;;;;;;;;;;;26.90;52.20;;;;;;5092444;28;20364;-63
2022/08/20 12:10:37;;;;;;;;;;;26.90;52.10;;;;;;5092957;28;20364;-62
2022/08/20 12:13:03;;;;;;;;;;;26.90;52.10;;;;;;5095384;28;19972;-62
2022/08/20 12:15:29;;;;;;;;;;;26.80;52.10;;;;;;5114216;28;19964;-62
2022/08/20 12:17:54;;;;;;;;;;;26.90;52.10;;;;;;5108560;28;19926;-61
2022/08/20 12:20:20;;;;;;;;;;;26.80;51.90;;;;;;5111577;28;19920;-61
2022/08/20 12:22:45;;;;;;;;;;;26.80;52.00;;;;;;5075390;28;19920;-61
2022/08/20 12:25:11;;;;;;;;;;;26.90;51.10;;;;;;5112079;28;19919;-61
2022/08/20 12:27:36;;;;;;;;;;;26.80;51.10;;;;;;5111692;28;19940;-61
2022/08/20 12:30:09;;;;;;;;;;;26.90;50.90;;;;;;5092424;28;19919;-61
2022/08/20 12:32:35;;;;;;;;;;;26.90;50.10;;;;;;5111629;28;19916;-62
2022/08/20 12:35:00;;;;;;;;;;;26.90;49.40;;;;;;5087947;28;19919;-61
2022/08/20 12:37:26;;;;;;;;;;;26.90;49.40;;;;;;5108553;28;19947;-61
2022/08/20 12:39:53;;;;;;;;;;;26.90;48.80;;;;;;5104621;28;19912;-61
2022/08/20 12:42:18;;;;;;;;;;;26.90;48.60;;;;;;5092356;28;19915;-61
2022/08/20 12:44:44;;;;;;;;;;;26.80;48.30;;;;;;5111994;28;20018;-61
2022/08/20 12:47:20;;;;;;;;;;;26.80;49.20;;;;;;5110097;28;19915;-61
2022/08/20 12:49:46;;;;;;;;;;;26.80;48.50;;;;;;5088496;28;19911;-61
2022/08/20 12:52:12;;;;;;;;;;;26.80;48.30;;;;;;5094305;28;19959;-61
2022/08/20 12:54:37;;;;;;;;;;;26.80;48.10;;;;;;5112039;28;20339;-61
2022/08/20 12:57:03;;;;;;;;;;;26.80;47.70;;;;;;5110518;28;19943;-61
2022/08/20 12:59:29;;;;;;;;;;;26.80;47.50;;;;;;5107994;28;19912;-61
2022/08/20 13:01:54;;;;;;;;;;;26.80;47.40;;;;;;5110111;28;19916;-61
2022/08/20 13:04:20;;;;;;;;;;;26.80;46.70;;;;;;5091893;28;19919;-61
2022/08/20 13:06:45;;;;;;;;;;;26.80;48.10;;;;;;5082306;28;19956;-61
2022/08/20 13:09:11;;;;;;;;;;;26.70;48.30;;;;;;5107395;28;19916;-61
2022/08/20 13:11:36;;;;;;;;;;;26.70;48.10;;;;;;5112288;28;19911;-61
2022/08/20 13:14:02;;;;;;;;;;;26.70;47.60;;;;;;5108559;28;19920;-61
2022/08/20 13:16:27;;;;;;;;;;;26.70;47.40;;;;;;5109325;28;19999;-61
2022/08/20 13:18:52;;;;;;;;;;;26.80;46.90;;;;;;5111851;28;19918;-61
2022/08/20 13:21:18;;;;;;;;;;;26.80;46.80;;;;;;5105198;28;19972;-62
2022/08/20 13:23:43;;;;;;;;;;;26.80;46.70;;;;;;5109344;28;19947;-60
2022/08/20 13:26:09;;;;;;;;;;;26.80;46.30;;;;;;5109193;28;19916;-61
2022/08/20 13:28:34;;;;;;;;;;;26.90;46.00;;;;;;5111906;28;19912;-61
2022/08/20 13:31:00;;;;;;;;;;;27.00;45.60;;;;;;5109411;28;20367;-61
2022/08/20 13:33:26;;;;;;;;;;;27.00;45.30;;;;;;5091643;28;19915;-61
2022/08/20 13:35:52;;;;;;;;;;;27.00;45.00;;;;;;5109182;28;20363;-61
2022/08/20 13:38:17;;;;;;;;;;;27.00;45.00;;;;;;5105521;28;19916;-61
2022/08/20 13:40:43;;;;;;;;;;;27.00;45.10;;;;;;5111553;28;19912;-61
2022/08/20 13:43:08;;;;;;;;;;;27.00;45.00;;;;;;5110547;28;19916;-61
2022/08/20 13:45:37;;;;;;;;;;;27.00;44.90;;;;;;5110547;28;20026;-62
2022/08/20 13:48:02;;;;;;;;;;;27.00;45.10;;;;;;5109189;28;20282;-61
2022/08/20 13:50:28;;;;;;;;;;;27.00;45.30;;;;;;5108650;28;19912;-61
2022/08/20 13:52:53;;;;;;;;;;;27.00;45.30;;;;;;5108409;28;20383;-61
2022/08/20 13:55:20;;;;;;;;;;;27.00;45.40;;;;;;5110604;28;20261;-61
2022/08/20 13:57:45;;;;;;;;;;;26.90;45.70;;;;;;5108394;28;19916;-61
2022/08/20 14:00:12;;;;;;;;;;;26.90;46.10;;;;;;5103322;28;19926;-61
2022/08/20 14:02:38;;;;;;;;;;;26.90;46.20;;;;;;5108707;28;19912;-61
2022/08/20 14:05:04;;;;;;;;;;;26.90;46.30;;;;;;5106269;28;19969;-61
2022/08/20 14:07:30;;;;;;;;;;;27.00;46.40;;;;;;5108872;28;19915;-61
2022/08/20 14:09:56;;;;;;;;;;;27.00;46.30;;;;;;5109544;28;19922;-62
2022/08/20 14:12:22;;;;;;;;;;;27.10;46.30;;;;;;5112177;28;19907;-61
2022/08/20 14:14:47;;;;;;;;;;;27.10;46.10;;;;;;5105045;28;19965;-61
2022/08/20 14:17:13;;;;;;;;;;;27.10;45.80;;;;;;5110014;28;19916;-61